Time;durP1;ratioP1;P1;durP2;ratioP2;P2;SDS_P1;SDS_P2;PMS_P1;PMS_P2;Temp;Humidity;BMP_temperature;BMP_pressure;BME280_temperature;BME280_humidity;BME280_pressure;Samples;Min_cycle;Max_cycle;Signal;HPM_P1;HPM_P2
2023/04/05 00:00:28;;;;;;;8.30;4.30;;;;;;;2.69;100.00;102996.13;5033545;28;20189;-68
2023/04/05 00:03:01;;;;;;;5.20;4.07;;;;;;;2.61;100.00;102971.94;5031417;28;20891;-68
2023/04/05 00:05:30;;;;;;;8.97;4.30;;;;;;;2.75;100.00;102981.66;5048678;28;20433;-68
2023/04/05 00:08:07;;;;;;;9.27;4.17;;;;;;;1.64;100.00;102847.19;5035243;28;20512;-68
2023/04/05 00:10:33;;;;;;;5.30;3.77;;;;;;;2.50;100.00;103012.31;5033841;28;20431;-68
2023/04/05 00:12:59;;;;;;;6.80;4.70;;;;;;;2.67;100.00;102985.66;5029263;28;20430;-68
2023/04/05 00:15:26;;;;;;;7.40;4.37;;;;;;;2.67;100.00;103004.19;5034343;28;20434;-68
2023/04/05 00:17:53;;;;;;;5.43;4.17;;;;;;;2.97;100.00;102997.09;5031827;28;20948;-68
2023/04/05 00:20:18;;;;;;;5.33;3.80;;;;;;;2.44;100.00;102954.41;5035310;28;20439;-68
2023/04/05 00:22:45;;;;;;;6.93;3.77;;;;;;;2.88;100.00;102986.09;5029481;28;20466;-68
2023/04/05 00:25:11;;;;;;;6.20;4.23;;;;;;;2.72;100.00;102967.69;5018585;28;20617;-68
2023/04/05 00:27:37;;;;;;;6.30;3.90;;;;;;;2.44;100.00;102952.63;5018438;28;20882;-68
2023/04/05 00:30:03;;;;;;;5.20;4.00;;;;;;;2.24;100.00;102971.50;5024517;28;20438;-68
2023/04/05 00:32:28;;;;;;;6.47;4.27;;;;;;;2.49;100.00;102955.84;5022993;28;20185;-67
2023/04/05 00:34:54;;;;;;;4.87;3.57;;;;;;;2.36;100.00;102972.56;5024461;28;20564;-68
2023/04/05 00:37:21;;;;;;;6.97;4.07;;;;;;;2.30;100.00;102941.16;5025910;28;20704;-68
2023/04/05 00:39:46;;;;;;;8.43;3.60;;;;;;;2.54;100.00;102971.44;5030805;28;20208;-68
2023/04/05 00:42:12;;;;;;;4.40;3.20;;;;;;;2.50;100.00;102975.22;5025598;28;20460;-68
2023/04/05 00:44:37;;;;;;;5.53;4.13;;;;;;;2.41;100.00;102944.88;5019176;28;20234;-67
2023/04/05 00:47:04;;;;;;;6.20;3.87;;;;;;;2.42;100.00;102962.44;5020630;28;20207;-68
2023/04/05 00:49:31;;;;;;;4.63;3.97;;;;;;;2.55;100.00;102981.13;5015257;28;20283;-67
2023/04/05 00:51:57;;;;;;;5.27;3.60;;;;;;;2.60;100.00;102972.84;5013609;28;20534;-68
2023/04/05 00:54:24;;;;;;;5.10;3.73;;;;;;;2.18;100.00;102959.50;5008751;28;20446;-68
2023/04/05 00:56:54;;;;;;;7.30;4.13;;;;;;;2.36;100.00;102944.28;5023033;28;20467;-68
2023/04/05 00:59:20;;;;;;;5.30;4.30;;;;;;;2.36;100.00;102928.41;5027357;28;20886;-68
2023/04/05 01:01:53;;;;;;;3.83;3.10;;;;;;;2.30;100.00;102925.28;5018423;28;20434;-68
2023/04/05 01:04:24;;;;;;;6.23;3.67;;;;;;;2.20;100.00;102912.59;5022557;28;20558;-68
2023/04/05 01:07:12;;;;;;;5.70;4.23;;;;;;;2.44;100.00;102949.13;5031712;28;21037;-68
2023/04/05 01:09:58;;;;;;;8.10;4.07;;;;;;;1.92;100.00;102900.16;5034018;28;20436;-68
2023/04/05 01:12:28;;;;;;;6.93;3.43;;;;;;;2.11;100.00;102947.59;5023532;28;20438;-68
2023/04/05 01:14:54;;;;;;;5.70;4.00;;;;;;;2.45;100.00;102956.97;5027805;28;20446;-68
2023/04/05 01:17:22;;;;;;;5.70;3.70;;;;;;;2.62;100.00;102949.78;5028116;28;20489;-67
2023/04/05 01:19:57;;;;;;;5.10;3.80;;;;;;;2.44;100.00;102931.44;5021890;28;20451;-68
2023/04/05 01:22:51;;;;;;;3.60;3.30;;;;;;;2.40;100.00;102950.25;5027673;28;20879;-68
2023/04/05 01:25:27;;;;;;;5.17;4.07;;;;;;;2.36;100.00;102960.16;5018625;28;20504;-68
2023/04/05 01:28:14;;;;;;;9.33;4.50;;;;;;;2.45;100.00;102961.41;5013999;28;20568;-68
2023/04/05 01:30:45;;;;;;;5.50;4.10;;;;;;;2.13;100.00;102934.25;5028279;28;20531;-68
2023/04/05 01:33:22;;;;;;;4.80;3.90;;;;;;;2.35;100.00;102950.53;5024199;28;20450;-68
2023/04/05 01:35:58;;;;;;;4.30;3.60;;;;;;;2.37;100.00;102951.31;5023951;28;20438;-68
2023/04/05 01:38:26;;;;;;;6.17;3.90;;;;;;;2.11;100.00;102915.81;5028399;28;20441;-68
2023/04/05 01:40:53;;;;;;;4.50;3.97;;;;;;;2.23;100.00;102948.63;5009564;28;21429;-68
2023/04/05 01:43:18;;;;;;;6.20;3.87;;;;;;;2.14;100.00;102936.81;5023980;28;20471;-68
2023/04/05 01:45:45;;;;;;;6.00;3.97;;;;;;;2.01;100.00;102928.72;5020949;28;20442;-68
2023/04/05 01:48:12;;;;;;;6.30;3.60;;;;;;;2.16;100.00;102940.19;5024997;28;20201;-68
2023/04/05 01:50:37;;;;;;;5.77;4.17;;;;;;;2.36;100.00;102943.44;5025317;28;20528;-68
2023/04/05 01:53:03;;;;;;;6.43;3.97;;;;;;;2.23;100.00;102930.94;5023883;28;20561;-67
2023/04/05 01:55:28;;;;;;;6.07;3.47;;;;;;;2.27;100.00;102926.31;5026480;28;20192;-68
2023/04/05 01:57:58;;;;;;;6.70;3.70;;;;;;;1.77;100.00;102872.84;5025423;28;20303;-67
2023/04/05 02:00:23;;;;;;;6.47;4.37;;;;;;;2.04;100.00;102917.97;5032974;28;20190;-68
2023/04/05 02:02:49;;;;;;;5.57;4.10;;;;;;;2.29;100.00;102940.31;5024068;28;20462;-67
2023/04/05 02:05:14;;;;;;;5.90;3.97;;;;;;;2.04;100.00;102951.53;5026027;28;20838;-68
2023/04/05 02:07:40;;;;;;;4.20;3.40;;;;;;;1.74;100.00;102938.31;5025061;28;20713;-67
2023/04/05 02:10:06;;;;;;;5.30;3.67;;;;;;;1.87;100.00;102941.09;5028928;28;20277;-68
2023/04/05 02:12:32;;;;;;;5.90;4.00;;;;;;;1.91;100.00;102947.88;5025820;28;20768;-68
2023/04/05 02:14:57;;;;;;;5.53;4.47;;;;;;;1.96;100.00;102906.13;5031466;28;20501;-68
2023/04/05 02:17:23;;;;;;;4.00;3.60;;;;;;;1.70;100.00;102936.78;5034276;28;20232;-66
2023/04/05 02:19:51;;;;;;;4.97;3.13;;;;;;;1.52;100.00;102936.06;5035810;28;20186;-66
2023/04/05 02:22:17;;;;;;;4.53;3.80;;;;;;;1.87;100.00;102956.97;5039843;28;20449;-66
2023/04/05 02:24:43;;;;;;;5.80;4.30;;;;;;;1.91;100.00;102966.41;5030651;28;20438;-67
2023/04/05 02:27:09;;;;;;;6.23;4.10;;;;;;;1.50;100.00;102957.28;5029252;28;20551;-66
2023/04/05 02:29:35;;;;;;;10.60;4.30;;;;;;;1.66;100.00;102969.66;5052745;28;20574;-66
2023/04/05 02:32:00;;;;;;;5.73;4.50;;;;;;;1.50;100.00;102953.78;5030830;28;20442;-66
2023/04/05 02:34:26;;;;;;;5.70;3.67;;;;;;;1.19;100.00;102817.25;5034960;28;20269;-66
2023/04/05 02:36:52;;;;;;;4.83;3.87;;;;;;;1.78;100.00;102963.66;5038660;28;20240;-66
2023/04/05 02:39:18;;;;;;;7.80;4.37;;;;;;;1.72;100.00;102964.00;5036549;28;20275;-66
2023/04/05 02:41:45;;;;;;;6.07;4.50;;;;;;;2.21;100.00;102939.94;5038126;28;20523;-66
2023/04/05 02:44:12;;;;;;;6.40;4.50;;;;;;;2.10;100.00;102951.16;5034337;28;20889;-66
2023/04/05 02:46:37;;;;;;;6.00;4.20;;;;;;;1.92;100.00;102941.66;5033317;28;20465;-66
2023/04/05 02:49:03;;;;;;;6.13;4.10;;;;;;;1.13;100.00;102806.06;5035587;28;20817;-66
2023/04/05 02:51:28;;;;;;;4.97;4.10;;;;;;;1.55;100.00;102894.41;5033012;28;20218;-68
2023/04/05 02:53:54;;;;;;;5.47;4.77;;;;;;;1.35;100.00;102902.63;5035901;28;20196;-68
2023/04/05 02:56:20;;;;;;;6.90;3.77;;;;;;;1.58;100.00;102893.38;5038692;28;20203;-66
2023/04/05 02:58:48;;;;;;;6.43;4.20;;;;;;;1.64;100.00;102934.50;5033227;28;20185;-68
2023/04/05 03:01:16;;;;;;;7.33;4.60;;;;;;;1.79;100.00;102931.81;5020070;28;20533;-68
2023/04/05 03:03:42;;;;;;;4.77;4.10;;;;;;;1.73;100.00;102933.94;5032113;28;20493;-70
2023/04/05 03:06:10;;;;;;;6.60;4.47;;;;;;;1.64;100.00;102932.69;5033837;28;20466;-68
2023/04/05 03:08:43;;;;;;;5.10;3.60;;;;;;;1.86;100.00;102928.81;5032697;28;20185;-68
2023/04/05 03:11:09;;;;;;;8.57;4.70;;;;;;;1.61;100.00;102921.44;5029162;28;20465;-69
2023/04/05 03:13:35;;;;;;;4.87;3.80;;;;;;;1.48;100.00;102900.16;5033885;28;20442;-69
2023/04/05 03:16:02;;;;;;;5.20;4.27;;;;;;;1.11;100.00;102859.97;5036810;28;20457;-68
2023/04/05 03:18:28;;;;;;;5.93;4.30;;;;;;;1.72;100.00;102924.31;5021288;28;20845;-69
2023/04/05 03:20:55;;;;;;;5.50;4.50;;;;;;;1.45;100.00;102905.63;5030299;28;20950;-69
2023/04/05 03:23:25;;;;;;;5.10;4.17;;;;;;;1.62;100.00;102923.13;5029934;28;20495;-69
2023/04/05 03:26:01;;;;;;;4.87;4.30;;;;;;;1.49;100.00;102910.63;5034007;23;20624;-70
2023/04/05 03:28:29;;;;;;;5.50;4.20;;;;;;;0.98;100.00;102840.44;4999110;28;20498;-71
2023/04/05 03:30:54;;;;;;;6.90;4.30;;;;;;;1.21;100.00;102886.72;5000346;28;20464;-72
2023/04/05 03:33:20;;;;;;;4.30;3.90;;;;;;;1.29;100.00;102871.25;4999504;28;20890;-70
2023/04/05 03:35:47;;;;;;;6.70;4.57;;;;;;;1.15;100.00;102898.47;5002462;28;20189;-71
2023/04/05 03:38:12;;;;;;;6.50;5.03;;;;;;;0.88;100.00;102927.31;5000070;28;20268;-71
2023/04/05 03:40:38;;;;;;;6.27;3.60;;;;;;;0.94;100.00;102941.97;4992796;28;20559;-70
2023/04/05 03:43:04;;;;;;;6.70;3.97;;;;;;;1.36;100.00;102936.09;5001223;28;20232;-71
2023/04/05 03:45:29;;;;;;;4.87;4.27;;;;;;;0.56;100.00;102784.69;4993493;28;20335;-71
2023/04/05 03:47:55;;;;;;;4.60;3.80;;;;;;;1.23;100.00;102917.41;4998756;28;20223;-73
2023/04/05 03:50:21;;;;;;;5.20;4.03;;;;;;;1.00;100.00;102912.56;4994769;28;20185;-72
2023/04/05 03:52:46;;;;;;;7.50;4.53;;;;;;;0.84;100.00;102830.66;5002647;28;20452;-73
2023/04/05 03:55:12;;;;;;;4.63;4.00;;;;;;;1.25;100.00;102909.41;5000428;28;20189;-73
2023/04/05 03:57:39;;;;;;;6.00;4.30;;;;;;;1.31;100.00;102919.63;4998641;28;20208;-73
2023/04/05 04:00:16;;;;;;;6.23;4.60;;;;;;;1.31;100.00;102909.06;5001249;28;20468;-72
2023/04/05 04:02:47;;;;;;;4.83;4.03;;;;;;;1.17;100.00;102867.53;5007879;28;20447;-73
2023/04/05 04:05:14;;;;;;;6.97;4.67;;;;;;;1.16;100.00;102888.75;5002342;28;20815;-73
2023/04/05 04:07:43;;;;;;;7.70;4.50;;;;;;;0.97;100.00;102910.09;5000895;28;20982;-73
2023/04/05 04:10:11;;;;;;;6.27;5.00;;;;;;;0.88;100.00;102928.16;4999567;28;20447;-72
2023/04/05 04:12:37;;;;;;;5.97;4.50;;;;;;;1.19;100.00;102913.25;5000223;28;20440;-72
2023/04/05 04:15:04;;;;;;;6.47;5.23;;;;;;;0.76;100.00;102920.06;5002077;28;20441;-72
2023/04/05 04:17:31;;;;;;;8.63;4.47;;;;;;;0.83;100.00;102903.78;5002448;28;20216;-73
2023/04/05 04:19:57;;;;;;;7.60;5.33;;;;;;;0.79;100.00;102926.03;5004608;28;20621;-72
2023/04/05 04:22:25;;;;;;;5.97;4.70;;;;;;;0.77;100.00;102906.75;4986821;28;20452;-72
2023/04/05 04:24:54;;;;;;;7.50;5.00;;;;;;;1.18;100.00;102916.81;4995023;28;20447;-73
2023/04/05 04:27:20;;;;;;;6.73;5.03;;;;;;;0.96;100.00;102916.34;4979146;28;20517;-72
2023/04/05 04:29:48;;;;;;;7.33;4.87;;;;;;;0.41;100.00;102909.63;4978032;28;20947;-73
2023/04/05 04:32:15;;;;;;;4.93;4.30;;;;;;;0.54;100.00;102934.41;4976698;28;20277;-72
2023/04/05 04:34:43;;;;;;;6.83;5.67;;;;;;;0.73;100.00;102947.50;4976234;28;20441;-72
2023/04/05 04:37:17;;;;;;;7.03;5.00;;;;;;;0.84;100.00;102926.63;4972460;28;20480;-73
2023/04/05 04:39:47;;;;;;;6.70;5.03;;;;;;;0.50;100.00;102842.25;4960585;28;21012;-72
2023/04/05 04:42:21;;;;;;;7.00;5.20;;;;;;;0.60;100.00;102931.44;4956854;28;20481;-73
2023/04/05 04:44:47;;;;;;;6.67;5.30;;;;;;;1.06;100.00;102947.44;4976038;28;20473;-73
2023/04/05 04:47:16;;;;;;;8.37;5.77;;;;;;;1.16;100.00;102916.06;4980034;28;20473;-73
2023/04/05 04:49:42;;;;;;;6.20;5.60;;;;;;;1.09;100.00;102938.47;4978647;28;20433;-72
2023/04/05 04:52:07;;;;;;;8.40;5.53;;;;;;;1.06;100.00;102925.44;4957469;28;21119;-72
2023/04/05 04:54:34;;;;;;;6.53;5.20;;;;;;;1.17;100.00;102925.69;4951995;28;20624;-73
2023/04/05 04:57:10;;;;;;;9.50;6.40;;;;;;;0.75;100.00;102858.44;4981037;28;20467;-73
2023/04/05 04:59:36;;;;;;;7.90;5.63;;;;;;;0.94;100.00;102924.34;4977357;28;20547;-72
2023/04/05 05:02:01;;;;;;;9.97;5.70;;;;;;;1.08;100.00;102927.06;4960877;28;20516;-73
2023/04/05 05:04:27;;;;;;;7.33;5.77;;;;;;;1.05;100.00;102918.47;4963018;28;20664;-72
2023/04/05 05:06:53;;;;;;;8.50;6.10;;;;;;;0.78;100.00;102905.84;4959959;28;20240;-73
2023/04/05 05:09:18;;;;;;;7.37;5.63;;;;;;;0.91;100.00;102924.50;4974440;28;20190;-73
2023/04/05 05:11:43;;;;;;;6.20;5.60;;;;;;;1.11;100.00;102926.03;4974212;28;20503;-71
2023/04/05 05:14:09;;;;;;;7.80;5.87;;;;;;;1.18;100.00;102924.75;4969824;28;20194;-72
2023/04/05 05:16:34;;;;;;;7.93;5.73;;;;;;;0.55;100.00;102824.34;4963857;28;20202;-72
2023/04/05 05:19:00;;;;;;;8.13;6.10;;;;;;;0.63;100.00;102915.44;4959947;28;20672;-72
2023/04/05 05:21:26;;;;;;;7.50;5.80;;;;;;;1.01;100.00;102925.69;4981344;28;20201;-72
2023/04/05 05:23:52;;;;;;;7.60;5.33;;;;;;;0.85;100.00;102906.34;4961377;28;20301;-72
2023/04/05 05:26:17;;;;;;;8.53;6.20;;;;;;;0.66;100.00;102840.47;4977264;28;20558;-73
2023/04/05 05:28:44;;;;;;;6.50;5.80;;;;;;;0.80;100.00;102925.09;4997751;28;20195;-72
2023/04/05 05:31:11;;;;;;;7.17;6.43;;;;;;;1.07;100.00;102930.66;4997934;28;20195;-73
2023/04/05 05:33:36;;;;;;;7.17;6.23;;;;;;;0.69;100.00;102922.16;4995432;28;20436;-72
2023/04/05 05:36:02;;;;;;;8.70;5.70;;;;;;;0.54;100.00;102910.66;5001873;28;20486;-73
2023/04/05 05:38:28;;;;;;;7.10;5.90;;;;;;;0.48;100.00;102969.06;5002724;28;20189;-73
2023/04/05 05:40:57;;;;;;;9.20;6.33;;;;;;;0.97;100.00;102945.31;5005027;28;20443;-72
2023/04/05 05:43:23;;;;;;;8.97;6.60;;;;;;;0.73;100.00;102922.88;5004001;28;20201;-72
2023/04/05 05:45:48;;;;;;;6.83;6.10;;;;;;;0.22;100.00;102846.38;5005019;28;20962;-73
2023/04/05 05:48:15;;;;;;;9.40;6.60;;;;;;;1.16;100.00;102960.13;4999783;28;20194;-72
2023/04/05 05:50:40;;;;;;;6.20;5.60;;;;;;;1.14;100.00;102952.31;4995797;28;20182;-73
2023/04/05 05:53:06;;;;;;;7.63;5.83;;;;;;;0.51;100.00;102857.16;5000346;28;20802;-72
2023/04/05 05:55:31;;;;;;;7.30;6.13;;;;;;;0.19;100.00;102807.81;4995374;28;20294;-70
2023/04/05 05:57:57;;;;;;;7.10;5.90;;;;;;;0.79;100.00;102893.47;4995289;28;20957;-71
2023/04/05 06:00:23;;;;;;;8.70;6.60;;;;;;;1.54;100.00;102958.84;4990017;28;20204;-70
2023/04/05 06:02:49;;;;;;;8.73;5.90;;;;;;;1.51;100.00;102948.44;4992740;28;20211;-71
2023/04/05 06:05:14;;;;;;;7.50;6.07;;;;;;;1.18;100.00;102924.75;4999078;28;20609;-71
2023/04/05 06:07:39;;;;;;;5.87;5.17;;;;;;;1.11;100.00;102912.81;5000720;28;20209;-71
2023/04/05 06:10:06;;;;;;;8.70;6.33;;;;;;;1.19;100.00;102901.84;4996760;28;20185;-71
2023/04/05 06:12:32;;;;;;;10.43;6.30;;;;;;;1.05;100.00;102874.38;5004078;28;20263;-72
2023/04/05 06:15:35;;;;;;;7.27;5.73;;;;;;;-0.27;100.00;102669.63;5002602;28;20943;-72
2023/04/05 06:18:29;;;;;;;6.37;4.40;;;;;;;0.63;100.00;102782.53;5003004;28;20517;-73
2023/04/05 06:20:59;;;;;;;7.47;5.90;;;;;;;1.13;100.00;102856.28;4999937;28;20460;-72
2023/04/05 06:23:46;;;;;;;;;;;;;;;;;;;;;
2023/04/05 06:26:31;;;;;;;9.00;6.00;;;;;;;1.58;100.00;102857.19;4996681;28;20471;-72
2023/04/05 06:29:10;;;;;;;6.77;5.70;;;;;;;1.04;100.00;102760.81;4997314;28;20474;-72
2023/04/05 06:31:47;;;;;;;8.10;5.80;;;;;;;-0.12;100.00;102604.63;4997101;28;20447;-74
2023/04/05 06:34:41;;;;;;;7.90;5.80;;;;;;;0.74;100.00;102752.88;5003780;28;20440;-72
2023/04/05 06:37:41;;;;;;;9.40;6.13;;;;;;;0.87;100.00;102756.53;4989648;28;20465;-72
2023/04/05 06:40:07;;;;;;;10.20;6.37;;;;;;;1.89;100.00;102905.66;4997327;28;21079;-72
2023/04/05 06:42:37;;;;;;;9.67;5.70;;;;;;;2.12;100.00;102919.31;5004886;28;20468;-71
2023/04/05 06:45:04;;;;;;;6.40;5.13;;;;;;;1.99;100.00;102901.50;4988653;28;20482;-71
2023/04/05 06:47:39;;;;;;;8.90;6.10;;;;;;;2.41;100.00;102921.03;5006126;28;20546;-71
2023/04/05 06:50:09;;;;;;;7.53;5.40;;;;;;;2.34;100.00;102874.66;5006766;28;20981;-71
2023/04/05 06:52:38;;;;;;;7.60;5.40;;;;;;;1.65;100.00;102746.59;5002240;28;20947;-71
2023/04/05 06:55:08;;;;;;;8.57;5.97;;;;;;;2.15;100.00;102832.59;5006602;28;20432;-71
2023/04/05 06:57:34;;;;;;;7.13;5.60;;;;;;;2.39;100.00;102803.72;5005723;28;20460;-71
2023/04/05 07:00:02;;;;;;;5.70;4.40;;;;;;;2.01;100.00;102703.75;5006050;28;20867;-71
2023/04/05 07:02:39;;;;;;;5.70;3.97;;;;;;;2.12;100.00;102681.03;5004982;28;20443;-71
2023/04/05 07:05:08;;;;;;;9.57;5.30;;;;;;;2.38;100.00;102680.19;5003125;28;20462;-71
2023/04/05 07:07:39;;;;;;;5.20;4.30;;;;;;;3.03;100.00;102772.19;5004746;28;20457;-71
2023/04/05 07:10:08;;;;;;;6.00;4.00;;;;;;;2.49;100.00;102669.75;5006050;28;20433;-71
2023/04/05 07:12:38;;;;;;;9.10;4.17;;;;;;;3.30;100.00;102742.97;4997899;28;20436;-70
2023/04/05 07:15:05;;;;;;;6.47;4.50;;;;;;;3.45;100.00;102757.00;5001968;28;20451;-71
2023/04/05 07:17:30;;;;;;;8.70;4.10;;;;;;;3.32;100.00;102737.56;4996438;28;20456;-70
2023/04/05 07:19:56;;;;;;;5.77;4.03;;;;;;;3.75;100.00;102756.66;4997300;28;20443;-70
2023/04/05 07:22:21;;;;;;;4.47;3.63;;;;;;;3.52;100.00;102710.50;5000485;28;20604;-70
2023/04/05 07:24:47;;;;;;;7.53;4.33;;;;;;;3.57;100.00;102678.34;4998123;28;20280;-71
2023/04/05 07:27:13;;;;;;;4.77;3.97;;;;;;;3.69;100.00;102714.63;4997335;28;20696;-71
2023/04/05 07:29:42;;;;;;;6.50;4.50;;;;;;;3.69;100.00;102704.00;4999250;28;20648;-71
2023/04/05 07:32:08;;;;;;;5.03;3.77;;;;;;;3.76;100.00;102738.91;4992862;28;23152;-70
2023/04/05 07:34:34;;;;;;;5.70;4.20;;;;;;;3.81;100.00;102737.66;4997286;28;20436;-71
2023/04/05 07:37:00;;;;;;;6.30;3.80;;;;;;;3.62;100.00;102673.56;4993205;28;20518;-70
2023/04/05 07:39:26;;;;;;;5.90;4.00;;;;;;;3.85;100.00;102669.28;5000085;28;20450;-71
2023/04/05 07:41:51;;;;;;;4.50;4.07;;;;;;;4.17;100.00;102721.88;5000178;28;20197;-71
2023/04/05 07:44:17;;;;;;;4.60;3.70;;;;;;;4.00;100.00;102667.31;5000470;28;20217;-71
2023/04/05 07:46:45;;;;;;;7.00;4.20;;;;;;;4.05;100.00;102665.16;5001677;28;20237;-71
2023/04/05 07:49:11;;;;;;;6.83;3.80;;;;;;;4.53;100.00;102713.00;5001734;28;20223;-71
2023/04/05 07:51:37;;;;;;;5.70;3.47;;;;;;;4.68;100.00;102708.38;5000777;28;20467;-71
2023/04/05 07:54:04;;;;;;;5.53;3.60;;;;;;;4.61;100.00;102705.31;5002472;28;20679;-71
2023/04/05 07:56:30;;;;;;;5.77;4.23;;;;;;;4.65;100.00;102696.16;5000999;28;20888;-71
2023/04/05 07:58:56;;;;;;;4.13;3.53;;;;;;;4.70;100.00;102709.09;4997856;28;20468;-71
2023/04/05 08:01:26;;;;;;;4.23;3.70;;;;;;;4.82;100.00;102704.69;5002775;28;20538;-71
2023/04/05 08:03:52;;;;;;;6.23;3.90;;;;;;;4.81;100.00;102705.66;5001229;28;20217;-71
2023/04/05 08:06:18;;;;;;;6.70;3.50;;;;;;;4.88;100.00;102702.41;5001366;28;20543;-71
2023/04/05 08:08:46;;;;;;;5.03;3.13;;;;;;;4.97;100.00;102675.09;5001131;28;20441;-70
2023/04/05 08:11:12;;;;;;;4.00;3.47;;;;;;;5.05;100.00;102671.03;5001075;28;20596;-71
2023/04/05 08:13:40;;;;;;;4.60;3.63;;;;;;;5.30;100.00;102702.75;4994622;28;20468;-71
2023/04/05 08:16:07;;;;;;;8.40;3.80;;;;;;;5.29;100.00;102682.41;5000099;28;20276;-70
2023/04/05 08:18:32;;;;;;;4.00;3.00;;;;;;;5.46;100.00;102704.22;4999409;28;20474;-71
2023/04/05 08:20:58;;;;;;;3.80;3.43;;;;;;;5.55;100.00;102699.00;4997234;28;20816;-71
2023/04/05 08:23:24;;;;;;;3.90;3.23;;;;;;;5.38;100.00;102680.84;4997235;28;20211;-72
2023/04/05 08:25:49;;;;;;;6.33;3.40;;;;;;;5.59;100.00;102703.16;4995854;28;20201;-70
2023/04/05 08:28:15;;;;;;;3.67;3.20;;;;;;;5.68;100.00;102682.09;4995496;28;20656;-69
2023/04/05 08:30:41;;;;;;;5.13;3.00;;;;;;;5.82;100.00;102682.69;4994614;28;20198;-70
2023/04/05 08:33:06;;;;;;;3.70;2.90;;;;;;;5.75;100.00;102669.97;4995223;28;20189;-70
2023/04/05 08:35:35;;;;;;;4.00;3.37;;;;;;;5.78;100.00;102680.38;4995730;28;20447;-71
2023/04/05 08:38:00;;;;;;;2.63;2.40;;;;;;;6.03;100.00;102676.63;5016990;28;20188;-70
2023/04/05 08:40:36;;;;;;;4.03;2.70;;;;;;;5.89;100.00;102659.06;5001057;28;20443;-70
2023/04/05 08:43:17;;;;;;;3.07;2.73;;;;;;;5.82;100.00;102648.06;4999936;28;20204;-71
2023/04/05 08:45:48;;;;;;;2.87;2.30;;;;;;;6.10;100.00;102654.72;4998740;28;20468;-71
2023/04/05 08:48:13;;;;;;;3.37;2.70;;;;;;;6.14;100.00;102663.28;4999112;28;20575;-70
2023/04/05 08:50:39;;;;;;;3.90;2.93;;;;;;;5.99;100.00;102645.88;4999207;28;20435;-71
2023/04/05 08:53:06;;;;;;;5.00;3.93;;;;;;;6.08;100.00;102653.13;4999673;28;20193;-70
2023/04/05 08:55:38;;;;;;;3.90;2.30;;;;;;;6.07;100.00;102620.31;4997557;28;20205;-70
2023/04/05 08:58:12;;;;;;;4.10;2.47;;;;;;;6.31;100.00;102653.91;5000030;28;20468;-70
2023/04/05 09:00:38;;;;;;;4.37;2.77;;;;;;;6.44;100.00;102633.25;4999879;28;20455;-70
2023/04/05 09:03:05;;;;;;;5.03;2.57;;;;;;;6.26;100.00;102586.81;5000870;28;20504;-70
2023/04/05 09:05:31;;;;;;;4.97;2.67;;;;;;;5.85;100.00;102522.66;5001318;28;20436;-70
2023/04/05 09:08:00;;;;;;;4.17;2.80;;;;;;;6.61;100.00;102628.34;4998002;28;20463;-70
2023/04/05 09:10:27;;;;;;;2.77;2.37;;;;;;;6.53;100.00;102616.50;5004978;28;20516;-71
2023/04/05 09:12:53;;;;;;;4.13;1.87;;;;;;;6.83;100.00;102620.22;5003932;28;20498;-70
2023/04/05 09:15:23;;;;;;;2.33;1.90;;;;;;;6.79;100.00;102611.63;5002801;28;20475;-70
2023/04/05 09:17:49;;;;;;;3.67;1.90;;;;;;;6.75;100.00;102596.03;5002103;28;20208;-70
2023/04/05 09:20:15;;;;;;;3.73;2.30;;;;;;;6.65;100.00;102563.94;5000754;28;21018;-70
2023/04/05 09:22:45;;;;;;;3.27;2.40;;;;;;;6.87;100.00;102578.97;5001466;28;20471;-70
2023/04/05 09:25:11;;;;;;;3.10;2.47;;;;;;;6.50;100.00;102512.78;5004271;28;20882;-70
2023/04/05 09:27:56;;;;;;;2.90;2.13;;;;;;;7.04;100.00;102532.16;5024925;23;20499;-66
2023/04/05 09:30:22;;;;;;;2.80;2.30;;;;;;;7.11;100.00;102521.78;5033676;28;20488;-66
2023/04/05 09:32:54;;;;;;;4.63;2.50;;;;;;;6.98;100.00;102495.34;5023495;28;20432;-66
2023/04/05 09:35:27;;;;;;;3.20;2.50;;;;;;;7.23;100.00;102513.56;5021677;28;20446;-66
2023/04/05 09:38:06;;;;;;;3.53;2.80;;;;;;;7.16;100.00;102500.88;5023175;28;20442;-66
2023/04/05 09:40:48;;;;;;;3.30;3.00;;;;;;;7.43;100.00;102498.44;5023793;28;20437;-66
2023/04/05 09:43:36;;;;;;;4.57;3.83;;;;;;;7.22;100.00;102484.31;5018039;28;20470;-66
2023/04/05 09:46:02;;;;;;;4.13;3.53;;;;;;;7.47;100.00;102489.16;5020687;28;20458;-66
2023/04/05 09:48:50;;;;;;;4.23;3.00;;;;;;;7.43;100.00;102428.16;5020394;28;20447;-66
2023/04/05 09:51:17;;;;;;;3.20;2.77;;;;;;;7.34;100.00;102437.00;5009045;28;20289;-66
2023/04/05 09:54:00;;;;;;;29.33;26.27;;;;;;;7.48;100.00;102476.66;5020223;28;20462;-65
2023/04/05 09:56:27;;;;;;;17.83;15.93;;;;;;;7.54;100.00;102467.25;5017183;28;20550;-67
2023/04/05 09:58:59;;;;;;;6.37;5.30;;;;;;;7.22;100.00;102468.31;5019208;28;20450;-67
2023/04/05 10:01:30;;;;;;;4.53;2.93;;;;;;;7.53;100.00;102470.91;5015770;28;20443;-67
2023/04/05 10:03:56;;;;;;;5.27;3.70;;;;;;;7.77;100.00;102465.97;5021933;28;20463;-65
2023/04/05 10:06:22;;;;;;;10.10;9.07;;;;;;;7.80;100.00;102471.03;5020560;28;20990;-65
2023/04/05 10:08:48;;;;;;;11.73;10.53;;;;;;;7.68;100.00;102458.81;5024381;28;20467;-65
2023/04/05 10:11:17;;;;;;;6.43;4.73;;;;;;;7.58;100.00;102456.16;5022023;28;20721;-65
2023/04/05 10:13:44;;;;;;;3.47;3.17;;;;;;;7.81;100.00;102456.72;5021719;28;20433;-65
2023/04/05 10:16:16;;;;;;;4.47;3.50;;;;;;;7.89;100.00;102448.81;5023280;28;20455;-65
2023/04/05 10:18:48;;;;;;;4.23;3.33;;;;;;;7.80;100.00;102441.66;5021723;28;20462;-65
2023/04/05 10:21:20;;;;;;;4.60;3.23;;;;;;;7.81;100.00;102458.53;5020997;28;20431;-65
2023/04/05 10:23:53;;;;;;;4.30;3.20;;;;;;;7.93;100.00;102438.72;5022217;28;20467;-66
2023/04/05 10:26:45;;;;;;;4.00;2.80;;;;;;;7.93;100.00;102455.59;5020458;28;20451;-66
2023/04/05 10:29:18;;;;;;;2.70;2.37;;;;;;;8.05;100.00;102450.09;5021106;28;20765;-66
2023/04/05 10:32:03;;;;;;;3.60;2.57;;;;;;;8.18;100.00;102439.09;5021348;28;21002;-66
2023/04/05 10:34:56;;;;;;;2.57;2.37;;;;;;;8.27;100.00;102452.41;5023209;28;20427;-66
2023/04/05 10:37:40;;;;;;;2.70;2.50;;;;;;;8.36;100.00;102440.00;5022937;28;20877;-66
2023/04/05 10:40:09;;;;;;;3.80;2.60;;;;;;;7.91;100.00;102353.34;5020974;28;20798;-66
2023/04/05 10:42:46;;;;;;;3.60;2.90;;;;;;;8.15;100.00;102417.00;5020787;28;20431;-66
2023/04/05 10:45:16;;;;;;;5.83;3.10;;;;;;;8.26;100.00;102431.19;5023984;28;20449;-66
2023/04/05 10:47:50;;;;;;;4.00;3.10;;;;;;;8.08;100.00;102436.44;5021563;28;20447;-65
2023/04/05 10:50:22;;;;;;;4.43;2.97;;;;;;;8.37;100.00;102442.56;5020855;28;20420;-66
2023/04/05 10:52:48;;;;;;;4.00;3.07;;;;;;;8.08;100.00;102405.22;5021975;28;20430;-66
2023/04/05 10:55:15;;;;;;;3.63;3.10;;;;;;;8.27;100.00;102428.34;5020149;28;20426;-66
2023/04/05 10:57:42;;;;;;;4.97;3.20;;;;;;;8.56;100.00;102420.31;5022265;28;20479;-66
2023/04/05 11:00:10;;;;;;;3.50;3.13;;;;;;;8.58;100.00;102415.63;5021494;28;20466;-66
2023/04/05 11:02:36;;;;;;;4.93;2.83;;;;;;;8.45;100.00;102419.63;5020772;28;20432;-66
2023/04/05 11:05:03;;;;;;;5.23;3.07;;;;;;;8.35;100.00;102408.94;5020520;28;20443;-66
2023/04/05 11:07:42;;;;;;;3.80;2.80;;;;;;;8.17;100.00;102400.81;5020625;28;20582;-66
2023/04/05 11:10:16;;;;;;;3.37;2.80;;;;;;;8.39;100.00;102407.69;5021527;28;20424;-66
2023/04/05 11:12:45;;;;;;;3.70;2.70;;;;;;;8.34;100.00;102405.41;5020872;28;20966;-66
2023/04/05 11:15:28;;;;;;;3.47;2.30;;;;;;;8.76;100.00;102409.50;5020210;28;20944;-66
2023/04/05 11:18:10;;;;;;;4.57;3.20;;;;;;;8.35;100.00;102407.09;5035362;28;20481;-66
2023/04/05 11:20:42;;;;;;;6.40;2.43;;;;;;;8.56;100.00;102395.34;5021445;28;20424;-66
2023/04/05 11:23:17;;;;;;;3.90;2.50;;;;;;;8.96;100.00;102402.22;5022023;28;20551;-66
2023/04/05 11:25:51;;;;;;;3.93;2.77;;;;;;;9.19;100.00;102394.59;5019022;28;20431;-66
2023/04/05 11:28:36;;;;;;;3.23;2.00;;;;;;;9.22;100.00;102395.13;5023046;28;20446;-66
2023/04/05 11:31:27;;;;;;;2.13;1.93;;;;;;;9.01;100.00;102398.09;5019702;28;20794;-66
2023/04/05 11:33:58;;;;;;;2.47;1.97;;;;;;;9.07;100.00;102383.25;5016114;28;20440;-66
2023/04/05 11:36:40;;;;;;;4.97;2.97;;;;;;;9.24;100.00;102381.59;5020994;28;20895;-66